Terminal Aerodrome Forecast
Issued by NWS

Home | Current Version | Previous Version | Text Only | Print | Product List | Glossary On
Versions: 1 2 3 4 5 6 7 8 9 10 11 12 13 14 15 16 17 18 19 20 21
000
FTUS41 KCLE 230831 AAB
TAFFDY
TAF AMD
KFDY 230831Z 2309/2406 10007KT 1SM BR VCSH OVC002
     FM231100 13009KT 1 1/2SM -RA BR OVC002
     FM231700 23013KT P6SM OVC007
     FM240200 27007KT P6SM BKN007
     FM240300 27006KT P6SM BKN010=

USA.gov is the U.S. government's official web portal to all federal, state and local government web resources and services.